Time;durP1;ratioP1;P1;durP2;ratioP2;P2;SDS_P1;SDS_P2;PMS_P1;PMS_P2;Temp;Humidity;BMP_temperature;BMP_pressure;BME280_temperature;BME280_humidity;BME280_pressure;Samples;Min_cycle;Max_cycle;Signal;HPM_P1;HPM_P2
2021/07/20 00:01:21;;;;;;;8.88;3.60;;;;;;;18.32;59.21;101605.88;4913506;28;119490;-76
2021/07/20 00:03:49;;;;;;;12.93;4.07;;;;;;;18.27;58.87;101591.91;4903723;28;120479;-76
2021/07/20 00:06:16;;;;;;;10.63;3.92;;;;;;;18.29;58.88;101604.06;4910674;28;120127;-76
2021/07/20 00:08:42;;;;;;;12.07;4.55;;;;;;;18.29;58.72;101609.63;4903999;28;119937;-76
2021/07/20 00:11:08;;;;;;;14.15;4.45;;;;;;;18.29;58.79;101611.63;4907856;28;119496;-75
2021/07/20 00:13:34;;;;;;;11.77;4.20;;;;;;;18.30;59.18;101608.38;4901260;28;119197;-76
2021/07/20 00:16:01;;;;;;;8.93;3.90;;;;;;;18.32;59.30;101607.88;4904633;28;121176;-76
2021/07/20 00:18:31;;;;;;;10.88;4.07;;;;;;;18.34;59.19;101605.38;4898821;28;119887;-76
2021/07/20 00:20:57;;;;;;;10.93;3.83;;;;;;;18.33;58.77;101604.63;4899577;28;121316;-76
2021/07/20 00:23:23;;;;;;;10.48;3.75;;;;;;;18.35;58.89;101618.03;4888586;28;120039;-76
2021/07/20 00:25:51;;;;;;;13.05;3.95;;;;;;;18.38;59.14;101608.72;4893935;28;119898;-75
2021/07/20 00:28:18;;;;;;;11.40;4.57;;;;;;;18.37;59.32;101615.53;4926556;28;119457;-76
2021/07/20 00:30:46;;;;;;;9.70;4.32;;;;;;;18.40;59.13;101612.56;4907791;28;119489;-76
2021/07/20 00:33:12;;;;;;;7.60;4.20;;;;;;;18.39;59.25;101607.47;4912214;28;119924;-76
2021/07/20 00:35:38;;;;;;;10.77;4.20;;;;;;;18.41;59.04;101616.09;4904590;28;121960;-76
2021/07/20 00:38:04;;;;;;;10.25;3.80;;;;;;;18.32;58.82;101611.44;4908765;28;119534;-76
2021/07/20 00:40:33;;;;;;;10.05;3.78;;;;;;;18.38;58.70;101615.06;4899431;28;120211;-76
2021/07/20 00:43:03;;;;;;;11.07;4.15;;;;;;;18.36;58.73;101614.78;4908029;28;120136;-75
2021/07/20 00:45:30;;;;;;;10.63;3.50;;;;;;;18.35;58.10;101607.69;4891049;28;119441;-75
2021/07/20 00:47:56;;;;;;;7.88;3.80;;;;;;;18.33;58.58;101614.97;4895338;28;119464;-75
2021/07/20 00:50:32;;;;;;;7.88;3.80;;;;;;;18.34;58.94;101606.16;4897054;28;119705;-76
2021/07/20 00:53:02;;;;;;;10.77;4.15;;;;;;;18.32;58.74;101611.44;4885976;28;119701;-75
2021/07/20 00:55:29;;;;;;;11.88;4.20;;;;;;;18.32;59.15;101603.09;4888565;28;121831;-75
2021/07/20 00:57:55;;;;;;;10.18;4.30;;;;;;;18.32;58.93;101599.56;4917896;28;119580;-76
2021/07/20 01:00:24;;;;;;;8.02;3.70;;;;;;;18.30;58.72;101600.03;4904724;28;120201;-75
2021/07/20 01:02:51;;;;;;;10.27;4.20;;;;;;;18.27;58.80;101606.56;4901370;28;120412;-75
2021/07/20 01:05:25;;;;;;;10.80;4.22;;;;;;;18.28;59.39;101602.53;4911573;28;120796;-77
2021/07/20 01:07:55;;;;;;;11.85;3.83;;;;;;;18.25;58.92;101606.28;4906323;28;120569;-76
2021/07/20 01:10:25;;;;;;;7.03;4.40;;;;;;;18.24;58.89;101604.75;4911216;28;120076;-76
2021/07/20 01:12:52;;;;;;;11.00;4.25;;;;;;;18.22;58.79;101598.91;4900634;28;121452;-76
2021/07/20 01:15:24;;;;;;;13.45;4.90;;;;;;;18.22;59.10;101604.47;4904496;28;120627;-75
2021/07/20 01:17:54;;;;;;;10.82;5.00;;;;;;;18.19;58.55;101594.31;4907053;28;119967;-76
2021/07/20 01:20:23;;;;;;;13.65;5.10;;;;;;;18.15;59.04;101584.63;4913215;28;119978;-75
2021/07/20 01:23:11;;;;;;;12.25;4.50;;;;;;;18.09;58.96;101584.56;4884887;28;120582;-75
2021/07/20 01:25:40;;;;;;;7.97;4.53;;;;;;;18.10;58.94;101592.41;4897817;28;119733;-77
2021/07/20 01:28:17;;;;;;;11.13;4.72;;;;;;;18.09;59.30;101590.13;4919344;28;119805;-75
2021/07/20 01:30:49;;;;;;;8.50;4.32;;;;;;;18.06;59.34;101586.28;4897069;28;120200;-76
2021/07/20 01:33:17;;;;;;;15.23;5.20;;;;;;;18.03;59.38;101586.50;4895811;28;119483;-76
2021/07/20 01:35:49;;;;;;;10.90;5.18;;;;;;;18.03;59.01;101586.50;4906216;28;122996;-76
2021/07/20 01:38:16;;;;;;;8.75;4.57;;;;;;;18.00;59.36;101590.22;4907098;28;120378;-76
2021/07/20 01:40:43;;;;;;;9.00;4.57;;;;;;;17.98;59.48;101581.59;4884672;28;121064;-75
2021/07/20 01:43:11;;;;;;;12.88;5.30;;;;;;;17.94;59.44;101578.25;4898604;28;120368;-75
2021/07/20 01:45:41;;;;;;;11.07;5.25;;;;;;;17.92;59.80;101580.75;4886616;28;121041;-76
2021/07/20 01:48:08;;;;;;;10.85;4.57;;;;;;;17.92;59.26;101580.75;4890181;28;121895;-75
2021/07/20 01:50:37;;;;;;;8.15;4.80;;;;;;;17.90;59.06;101584.00;4911444;28;119849;-76
2021/07/20 01:53:06;;;;;;;8.57;4.97;;;;;;;17.87;59.28;101578.63;4893444;28;119591;-75
2021/07/20 01:55:35;;;;;;;11.50;5.60;;;;;;;17.82;59.39;101582.88;4910426;28;119698;-75
2021/07/20 01:58:02;;;;;;;10.38;5.22;;;;;;;17.78;59.50;101580.28;4909348;28;119725;-75
2021/07/20 02:00:57;;;;;;;9.60;4.93;;;;;;;17.75;59.48;101584.03;4897938;28;119602;-76
2021/07/20 02:09:19;;;;;;;11.23;4.63;;;;;;;17.68;60.11;101570.50;4877897;28;120548;-76
2021/07/20 02:11:46;;;;;;;10.45;4.95;;;;;;;17.71;60.17;101575.09;4884795;28;120742;-77
2021/07/20 02:14:39;;;;;;;10.05;4.80;;;;;;;17.72;60.05;101571.06;4887876;28;119989;-76
2021/07/20 02:17:27;;;;;;;11.90;5.25;;;;;;;17.73;60.32;101572.59;4905003;28;119487;-76
2021/07/20 02:20:06;;;;;;;9.48;5.30;;;;;;;17.75;60.58;101572.91;4907403;28;122112;-76
2021/07/20 02:22:46;;;;;;;8.95;5.32;;;;;;;17.76;60.19;101568.91;4903651;28;119400;-76
2021/07/20 02:25:13;;;;;;;9.43;5.65;;;;;;;17.78;60.39;101560.09;4892118;28;120103;-76
2021/07/20 02:27:40;;;;;;;10.70;5.60;;;;;;;17.77;60.44;101562.09;4921182;28;119691;-76
2021/07/20 02:30:14;;;;;;;11.55;5.30;;;;;;;17.78;60.31;101560.09;4905258;28;119500;-76
2021/07/20 02:32:45;;;;;;;9.52;5.57;;;;;;;17.76;60.28;101552.25;4905046;28;119925;-76
2021/07/20 02:35:25;;;;;;;13.68;6.00;;;;;;;17.71;60.43;101561.22;4923235;28;120021;-76
2021/07/20 02:37:54;;;;;;;9.68;5.30;;;;;;;17.73;60.26;101569.06;4907165;28;119626;-76
2021/07/20 02:40:23;;;;;;;10.32;5.50;;;;;;;17.72;60.60;101568.31;4920906;28;120376;-77
2021/07/20 02:42:52;;;;;;;12.05;5.57;;;;;;;17.70;60.41;101568.00;4893488;28;119587;-75
2021/07/20 02:45:18;;;;;;;13.93;6.10;;;;;;;17.72;60.51;101568.31;4921193;28;119526;-76
2021/07/20 02:47:48;;;;;;;16.27;6.85;;;;;;;17.71;60.55;101566.00;4914097;28;119532;-76
2021/07/20 02:50:21;;;;;;;12.98;5.70;;;;;;;17.69;61.05;101569.25;4923038;28;119460;-76
2021/07/20 02:52:51;;;;;;;14.30;5.57;;;;;;;17.70;60.79;101565.25;4924794;28;120942;-78
2021/07/20 02:55:28;;;;;;;10.88;5.90;;;;;;;17.67;60.64;101568.19;4897092;28;120648;-76
2021/07/20 02:57:54;;;;;;;9.52;5.10;;;;;;;17.70;60.48;101568.00;4868875;28;119900;-77
2021/07/20 03:00:21;;;;;;;12.27;6.10;;;;;;;17.68;60.52;101567.72;4907532;28;120117;-76
2021/07/20 03:02:56;;;;;;;10.70;5.70;;;;;;;17.67;60.95;101573.72;4896217;28;121192;-77
2021/07/20 03:05:24;;;;;;;10.43;6.25;;;;;;;17.66;60.80;101572.19;4902593;28;120202;-76
2021/07/20 03:07:58;;;;;;;12.52;5.60;;;;;;;17.66;60.90;101572.97;4908104;28;120245;-77
2021/07/20 03:10:32;;;;;;;15.00;6.28;;;;;;;17.66;61.33;101574.97;4926087;28;119863;-78
2021/07/20 03:13:02;;;;;;;11.50;5.80;;;;;;;17.66;60.89;101581.28;4920503;28;119607;-76
2021/07/20 03:15:40;;;;;;;11.30;5.50;;;;;;;17.63;60.99;101571.16;4896883;28;120431;-76
2021/07/20 03:18:11;;;;;;;12.90;6.30;;;;;;;17.63;61.33;101570.38;4910793;28;119649;-76
2021/07/20 03:20:42;;;;;;;12.48;6.10;;;;;;;17.63;61.30;101564.84;4874441;28;121207;-76
2021/07/20 03:23:12;;;;;;;11.48;5.88;;;;;;;17.63;61.15;101560.06;4909385;28;119816;-78
2021/07/20 03:25:42;;;;;;;9.38;5.60;;;;;;;17.62;61.04;101566.84;4923904;28;119991;-76
2021/07/20 03:28:10;;;;;;;9.05;5.65;;;;;;;17.63;61.15;101559.28;4910092;28;121177;-76
2021/07/20 03:30:42;;;;;;;10.77;5.70;;;;;;;17.64;61.19;101567.13;4908134;28;121202;-76
2021/07/20 03:33:12;;;;;;;10.57;5.50;;;;;;;17.67;60.95;101565.41;4923822;28;119712;-76
2021/07/20 03:35:53;;;;;;;10.18;5.30;;;;;;;17.66;61.09;101564.63;4907414;28;119745;-77
2021/07/20 03:38:20;;;;;;;9.85;5.70;;;;;;;17.64;61.11;101558.81;4908641;28;120204;-76
2021/07/20 03:40:51;;;;;;;14.65;6.05;;;;;;;17.53;60.93;101533.66;4936512;22;119476;-94
2021/07/20 03:43:22;;;;;;;13.35;5.95;;;;;;;17.57;60.73;101544.56;4921010;28;120549;-94
2021/07/20 03:45:50;;;;;;;11.27;6.22;;;;;;;17.56;60.89;101541.03;4920309;28;121935;-93
2021/07/20 03:48:17;;;;;;;10.63;5.78;;;;;;;17.55;60.71;101531.16;4934706;28;119475;-93
2021/07/20 03:50:53;;;;;;;10.95;5.55;;;;;;;17.60;60.73;101535.28;4936840;28;121113;-93
2021/07/20 03:53:20;;;;;;;11.32;5.65;;;;;;;17.55;60.32;101525.63;4934835;28;123208;-92
2021/07/20 03:55:51;;;;;;;11.25;5.93;;;;;;;17.34;59.98;101499.03;4939388;28;118694;-94
2021/07/20 03:58:18;;;;;;;11.52;5.82;;;;;;;17.57;60.32;101531.47;4923111;28;120615;-95
2021/07/20 04:00:50;;;;;;;10.20;5.85;;;;;;;17.59;60.78;101531.75;4890904;28;121721;-95
2021/07/20 04:03:21;;;;;;;15.93;6.35;;;;;;;17.44;60.65;101514.31;4908651;28;120334;-95
2021/07/20 04:06:23;;;;;;;10.93;5.50;;;;;;;17.37;60.67;101500.84;4943192;28;120834;-94
2021/07/20 04:09:11;;;;;;;13.65;6.10;;;;;;;17.39;60.37;101498.34;4929787;28;122016;-94
2021/07/20 04:12:01;;;;;;;17.80;8.52;;;;;;;17.84;60.77;101558.16;4927637;28;118711;-95
2021/07/20 04:14:48;;;;;;;11.52;5.45;;;;;;;17.50;60.51;101498.53;4941690;28;120954;-95
2021/07/20 04:17:15;;;;;;;10.32;5.72;;;;;;;17.53;60.51;101496.84;4923800;28;118958;-96
2021/07/20 04:19:42;;;;;;;12.27;5.47;;;;;;;17.95;60.09;101563.88;4905471;28;121696;-95
2021/07/20 04:22:09;;;;;;;11.35;5.38;;;;;;;17.52;60.21;101496.06;4917526;28;121794;-94
2021/07/20 04:24:39;;;;;;;13.95;5.70;;;;;;;17.75;60.20;101517.41;4941856;28;118626;-94
2021/07/20 04:27:10;;;;;;;8.75;5.20;;;;;;;17.91;60.04;101537.56;4957180;28;121072;-95
2021/07/20 04:29:37;;;;;;;10.25;5.68;;;;;;;17.77;60.15;101509.38;4918829;28;121968;-94
2021/07/20 04:32:06;;;;;;;12.43;5.53;;;;;;;17.73;59.97;101500.47;4926027;28;119186;-93
2021/07/20 04:34:34;;;;;;;10.25;5.53;;;;;;;17.82;60.04;101504.38;4928025;28;121193;-91
2021/07/20 04:37:26;;;;;;;12.85;5.97;;;;;;;17.90;60.01;101505.50;4937819;27;119591;-94
2021/07/20 04:40:00;;;;;;;8.88;5.10;;;;;;;17.93;59.89;101515.66;4927243;28;120690;-94
2021/07/20 04:42:32;;;;;;;9.85;6.15;;;;;;;17.98;59.77;101513.00;4925678;28;121558;-94
2021/07/20 04:44:58;;;;;;;8.98;5.45;;;;;;;18.24;59.62;101540.88;4938631;28;120791;-95
2021/07/20 04:47:41;;;;;;;10.73;6.40;;;;;;;18.03;59.78;101505.97;4932125;28;120922;-95
2021/07/20 04:50:27;;;;;;;9.50;5.45;;;;;;;18.24;59.09;101538.09;4932078;28;121718;-95
2021/07/20 04:52:59;;;;;;;12.50;6.20;;;;;;;18.16;59.26;101520.28;4936803;28;118768;-95
2021/07/20 04:55:27;;;;;;;12.68;6.25;;;;;;;18.41;59.08;101544.63;4928225;28;120714;-93
2021/07/20 04:57:58;;;;;;;12.50;6.78;;;;;;;18.20;59.13;101514.53;4941049;28;118644;-94
2021/07/20 05:00:24;;;;;;;12.45;6.70;;;;;;;18.26;58.96;101516.16;4921397;28;118673;-94
2021/07/20 05:02:52;;;;;;;13.85;5.93;;;;;;;18.35;59.09;101518.03;4941544;27;121486;-95
2021/07/20 05:05:22;;;;;;;13.65;6.80;;;;;;;18.57;59.43;101551.69;4922868;28;119316;-94
2021/07/20 05:07:56;;;;;;;11.73;6.38;;;;;;;18.42;59.35;101523.94;4939069;28;118575;-95
2021/07/20 05:10:25;;;;;;;13.65;7.28;;;;;;;18.45;59.82;101524.97;4919604;28;121501;-94
2021/07/20 05:13:25;;;;;;;13.25;6.43;;;;;;;18.66;59.17;101553.56;4934267;28;119208;-95
2021/07/20 05:15:57;;;;;;;14.55;7.30;;;;;;;18.55;59.63;101523.63;4917966;28;120999;-95
2021/07/20 05:18:26;;;;;;;16.65;7.75;;;;;;;18.58;59.66;101522.63;4919054;28;121949;-93
2021/07/20 05:20:58;;;;;;;13.18;6.75;;;;;;;18.64;59.67;101523.50;4939043;28;120905;-96
2021/07/20 05:23:25;;;;;;;12.73;6.97;;;;;;;18.84;59.40;101549.78;4919885;28;123260;-95
2021/07/20 05:25:59;;;;;;;15.77;7.95;;;;;;;18.79;59.77;101522.69;4922751;28;118671;-94
2021/07/20 05:28:27;;;;;;;15.77;7.63;;;;;;;18.92;59.38;101551.63;4912491;28;120767;-94
2021/07/20 05:30:56;;;;;;;16.35;7.80;;;;;;;18.82;58.93;101527.25;4938234;28;121788;-94
2021/07/20 05:33:22;;;;;;;14.82;7.97;;;;;;;18.83;58.97;101517.66;4938428;28;119122;-93
2021/07/20 05:36:01;;;;;;;17.67;8.27;;;;;;;18.90;59.39;101523.56;4923630;28;121193;-94
2021/07/20 05:38:39;;;;;;;14.05;7.60;;;;;;;18.84;59.17;101514.41;4922561;28;121878;-94
2021/07/20 05:41:28;;;;;;;12.90;7.93;;;;;;;19.33;59.35;101579.41;4934974;22;119759;-74
2021/07/20 05:43:55;;;;;;;16.27;7.78;;;;;;;19.38;59.17;101577.94;4916720;28;121182;-73
2021/07/20 05:46:24;;;;;;;18.55;8.00;;;;;;;19.41;58.51;101574.94;4888908;28;122350;-73
2021/07/20 05:48:56;;;;;;;17.40;8.50;;;;;;;19.48;58.63;101574.50;4906513;28;119943;-73
2021/07/20 05:51:22;;;;;;;15.43;8.45;;;;;;;19.57;58.94;101576.38;4923641;28;119934;-72
2021/07/20 05:54:18;;;;;;;14.57;8.75;;;;;;;19.66;59.15;101581.03;4920231;28;119575;-73
2021/07/20 05:56:51;;;;;;;17.05;8.23;;;;;;;19.70;58.49;101578.78;4919138;28;119852;-73
2021/07/20 05:59:40;;;;;;;16.55;8.00;;;;;;;19.72;58.04;101576.28;4914251;28;121418;-73
2021/07/20 06:02:15;;;;;;;14.18;7.90;;;;;;;19.78;58.25;101577.09;4908554;28;120402;-74
2021/07/20 06:04:44;;;;;;;18.80;8.60;;;;;;;19.80;59.02;101580.91;4928414;28;120003;-72
2021/07/20 06:07:12;;;;;;;16.33;8.80;;;;;;;19.84;57.89;101580.66;4924131;28;120168;-73
2021/07/20 06:09:44;;;;;;;17.15;7.45;;;;;;;19.86;56.89;101580.94;4925147;28;119572;-73
2021/07/20 06:12:12;;;;;;;15.07;8.43;;;;;;;19.90;57.51;101581.50;4928993;28;122012;-73
2021/07/20 06:14:38;;;;;;;17.02;8.63;;;;;;;19.96;57.38;101582.31;4927474;28;120130;-73
2021/07/20 06:17:07;;;;;;;14.43;8.05;;;;;;;20.04;57.32;101585.38;4900375;28;121505;-73
2021/07/20 06:19:33;;;;;;;15.85;8.38;;;;;;;20.15;57.11;101582.72;4922335;28;119876;-73
2021/07/20 06:22:08;;;;;;;13.40;7.55;;;;;;;20.23;56.43;101590.09;4923678;28;120334;-73
2021/07/20 06:24:45;;;;;;;13.27;7.50;;;;;;;20.32;57.01;101585.59;4920985;28;120258;-73
2021/07/20 06:27:13;;;;;;;11.95;7.28;;;;;;;20.44;56.61;101582.41;4914122;28;119455;-74
2021/07/20 06:29:45;;;;;;;14.88;7.03;;;;;;;20.55;55.75;101592.84;4930867;28;120138;-73
2021/07/20 06:32:13;;;;;;;16.05;7.10;;;;;;;20.63;55.37;101590.38;4918350;28;120309;-73
2021/07/20 06:34:42;;;;;;;13.52;7.50;;;;;;;20.64;54.59;101583.53;4907400;28;120685;-73
2021/07/20 06:37:09;;;;;;;11.65;6.13;;;;;;;20.67;54.43;101583.31;4906223;28;123708;-72
2021/07/20 06:39:37;;;;;;;12.10;6.82;;;;;;;20.72;53.74;101590.16;4896210;28;128332;-73
2021/07/20 06:42:04;;;;;;;14.90;7.18;;;;;;;20.69;54.64;101580.78;4917468;28;119568;-72
2021/07/20 06:44:32;;;;;;;14.10;7.15;;;;;;;20.74;54.21;101582.06;4907098;28;120494;-73
2021/07/20 06:47:00;;;;;;;13.88;7.20;;;;;;;20.67;53.92;101569.38;4920003;28;120255;-73
2021/07/20 06:49:26;;;;;;;12.32;6.72;;;;;;;20.76;53.66;101585.88;4926511;28;120023;-73
2021/07/20 06:51:53;;;;;;;11.25;6.85;;;;;;;20.81;54.40;101581.59;4896986;28;121054;-73
2021/07/20 06:54:20;;;;;;;13.30;7.47;;;;;;;20.89;55.43;101590.25;4884794;28;119819;-73
2021/07/20 06:56:55;;;;;;;15.88;7.60;;;;;;;20.94;54.71;101587.47;4920015;28;122220;-74
2021/07/20 06:59:28;;;;;;;10.77;6.53;;;;;;;20.97;53.31;101600.41;4900918;28;119648;-73
2021/07/20 07:01:58;;;;;;;14.70;7.35;;;;;;;20.97;53.57;101594.06;4890379;28;120084;-72
2021/07/20 07:04:35;;;;;;;14.93;7.60;;;;;;;21.02;53.98;101602.47;4909837;28;119846;-73
2021/07/20 07:07:02;;;;;;;12.90;7.30;;;;;;;21.07;54.19;101601.75;4903305;28;121587;-73
2021/07/20 07:09:30;;;;;;;15.18;7.38;;;;;;;21.13;53.84;101596.94;4927824;28;120117;-73
2021/07/20 07:12:01;;;;;;;12.10;6.85;;;;;;;21.18;53.92;101608.63;4936251;28;120184;-72
2021/07/20 07:14:30;;;;;;;10.18;6.70;;;;;;;21.16;53.31;101603.53;4920485;28;120017;-72
2021/07/20 07:16:57;;;;;;;11.88;6.85;;;;;;;21.13;53.67;101596.19;4889052;28;124403;-74
2021/07/20 07:19:23;;;;;;;11.63;6.35;;;;;;;21.13;53.06;101610.13;4901867;28;120187;-73
2021/07/20 07:21:51;;;;;;;14.68;7.55;;;;;;;21.08;53.11;101603.25;4920965;28;120625;-73
2021/07/20 07:24:20;;;;;;;10.75;6.85;;;;;;;21.02;53.07;101605.25;4925935;28;119645;-73
2021/07/20 07:26:48;;;;;;;14.05;6.82;;;;;;;20.99;53.37;101608.28;4919368;28;120690;-73
2021/07/20 07:29:17;;;;;;;13.18;6.97;;;;;;;20.98;53.97;101606.75;4917416;28;120238;-72
2021/07/20 07:31:47;;;;;;;17.30;7.75;;;;;;;20.95;53.66;101607.75;4920158;28;127511;-72
2021/07/20 07:34:16;;;;;;;13.13;6.93;;;;;;;20.92;54.43;101614.34;4906786;28;120255;-74
2021/07/20 07:36:47;;;;;;;13.18;7.00;;;;;;;20.99;54.98;101614.63;4900101;28;122726;-74
2021/07/20 07:39:15;;;;;;;13.80;6.47;;;;;;;21.09;53.93;101613.16;4910644;28;120169;-73
2021/07/20 07:41:42;;;;;;;15.07;7.18;;;;;;;21.15;53.84;101608.34;4899423;28;120167;-74
2021/07/20 07:44:12;;;;;;;12.43;6.75;;;;;;;21.22;54.62;101604.31;4889713;28;121166;-73
2021/07/20 07:46:43;;;;;;;13.57;7.78;;;;;;;21.31;54.48;101595.00;4913909;28;124777;-73
2021/07/20 07:49:10;;;;;;;12.80;6.80;;;;;;;21.33;54.59;101600.84;4921120;28;119837;-73
2021/07/20 07:51:41;;;;;;;14.60;7.40;;;;;;;21.36;55.23;101603.38;4917086;28;119703;-74
2021/07/20 07:54:08;;;;;;;14.23;7.13;;;;;;;21.42;54.18;101601.34;4907497;28;119933;-73
2021/07/20 07:56:34;;;;;;;14.32;6.75;;;;;;;21.46;53.80;101601.09;4922826;28;119672;-73
2021/07/20 07:59:02;;;;;;;10.48;6.53;;;;;;;21.47;54.05;101597.03;4919683;28;121495;-73
2021/07/20 08:01:30;;;;;;;11.57;6.90;;;;;;;21.58;54.15;101596.31;4919676;28;119615;-72
2021/07/20 08:03:57;;;;;;;9.80;6.80;;;;;;;21.66;54.09;101602.91;4889386;28;120026;-73
2021/07/20 08:06:28;;;;;;;15.48;6.90;;;;;;;21.79;54.19;101599.66;4903622;28;121945;-73
2021/07/20 08:09:03;;;;;;;12.88;7.28;;;;;;;21.85;54.00;101603.97;4921058;28;119933;-73
2021/07/20 08:11:32;;;;;;;12.38;7.32;;;;;;;21.86;53.78;101607.50;4921132;28;121675;-72
2021/07/20 08:14:02;;;;;;;13.82;7.78;;;;;;;21.94;54.73;101597.34;4897521;28;120576;-73
2021/07/20 08:16:33;;;;;;;11.77;6.28;;;;;;;22.04;53.52;101596.63;4892756;28;119999;-75
2021/07/20 08:19:03;;;;;;;12.70;6.93;;;;;;;22.09;53.34;101583.16;4919824;28;122745;-73
2021/07/20 08:21:33;;;;;;;11.27;6.82;;;;;;;22.15;53.31;101575.53;4895812;28;123995;-73
2021/07/20 08:24:00;;;;;;;14.38;6.65;;;;;;;22.22;53.35;101581.34;4910627;28;119774;-75
2021/07/20 08:26:32;;;;;;;12.10;6.45;;;;;;;22.28;53.00;101593.31;4908751;28;120409;-73
2021/07/20 08:29:08;;;;;;;14.07;6.50;;;;;;;22.20;51.58;101583.13;4884322;28;120838;-72
2021/07/20 08:31:38;;;;;;;14.40;6.65;;;;;;;22.23;51.95;101598.88;4908617;28;120755;-72
2021/07/20 08:34:07;;;;;;;14.45;7.00;;;;;;;22.17;52.29;101596.09;4906132;28;120165;-73
2021/07/20 08:36:39;;;;;;;12.77;6.68;;;;;;;22.14;52.13;101596.34;4917871;28;128515;-72
2021/07/20 08:39:08;;;;;;;13.90;6.95;;;;;;;22.18;53.13;101591.28;4926593;28;119908;-73
2021/07/20 08:41:59;;;;;;;11.80;6.70;;;;;;;22.22;53.36;101586.94;4907044;28;120210;-73
2021/07/20 08:44:47;;;;;;;11.43;6.65;;;;;;;22.36;52.50;101596.31;4908930;28;120145;-73
2021/07/20 08:47:24;;;;;;;10.57;6.10;;;;;;;22.45;52.62;101582.06;4900880;28;120547;-73
2021/07/20 08:50:05;;;;;;;11.77;6.57;;;;;;;22.56;52.07;101586.88;4918518;28;120182;-73
2021/07/20 08:52:40;;;;;;;12.43;7.07;;;;;;;22.56;51.41;101596.03;4903350;28;119931;-73
2021/07/20 08:55:21;;;;;;;15.30;6.85;;;;;;;22.60;51.29;101592.97;4901581;28;122138;-73
2021/07/20 08:58:15;;;;;;;11.43;6.18;;;;;;;22.72;51.83;101594.47;4903774;28;121294;-74
2021/07/20 09:00:44;;;;;;;10.15;6.20;;;;;;;22.77;50.48;101598.53;4898387;28;120541;-73
2021/07/20 09:03:24;;;;;;;11.32;6.38;;;;;;;22.71;51.72;101601.31;4907216;28;122095;-72
2021/07/20 09:06:15;;;;;;;9.18;5.72;;;;;;;22.63;51.38;101603.88;4913715;28;127504;-73
2021/07/20 09:08:45;;;;;;;10.48;5.85;;;;;;;22.57;50.55;101608.75;4907907;28;120392;-73
2021/07/20 09:11:30;;;;;;;9.85;5.75;;;;;;;22.53;51.08;101610.28;4916059;28;120487;-73
2021/07/20 09:14:16;;;;;;;11.05;6.18;;;;;;;22.56;51.80;101606.47;4903326;28;120680;-73
2021/07/20 09:16:50;;;;;;;12.32;6.30;;;;;;;22.57;52.12;101605.94;4919281;28;120980;-74
2021/07/20 09:19:31;;;;;;;9.93;6.05;;;;;;;22.59;52.24;101603.41;4918506;28;120260;-73
2021/07/20 09:22:05;;;;;;;10.98;6.20;;;;;;;22.65;52.66;101603.38;4905080;28;120295;-73
2021/07/20 09:24:46;;;;;;;12.02;6.03;;;;;;;22.62;50.37;101605.16;4933271;28;121425;-74
2021/07/20 09:27:22;;;;;;;10.80;5.65;;;;;;;22.55;50.71;101611.28;4927734;28;121727;-72
2021/07/20 09:29:53;;;;;;;11.23;5.78;;;;;;;22.55;49.68;101607.72;4918593;28;121853;-72
2021/07/20 09:32:27;;;;;;;9.75;5.97;;;;;;;22.67;50.00;101607.19;4907150;28;120061;-73
2021/07/20 09:35:05;;;;;;;9.90;5.85;;;;;;;22.83;50.55;101604.88;4896486;28;121778;-73
2021/07/20 09:37:53;;;;;;;10.50;5.93;;;;;;;22.87;47.92;101611.72;4895003;28;126132;-72
2021/07/20 09:40:37;;;;;;;9.82;6.07;;;;;;;22.85;49.29;101605.88;4910200;28;121264;-73
2021/07/20 09:43:07;;;;;;;11.57;5.97;;;;;;;22.82;49.86;101614.53;4967457;23;121640;-76
2021/07/20 09:45:48;;;;;;;10.60;6.10;;;;;;;22.83;49.47;101602.84;4918324;28;121255;-76
2021/07/20 09:49:13;;;;;;;8.35;5.30;;;;;;;22.92;48.81;101599.75;4927132;28;120843;-76
2021/07/20 09:51:50;;;;;;;9.85;6.00;;;;;;;22.96;47.94;101605.09;4902924;28;121062;-76
2021/07/20 09:54:37;;;;;;;10.95;6.40;;;;;;;22.97;47.68;101615.00;4900989;28;120954;-76
2021/07/20 09:57:31;;;;;;;11.80;6.30;;;;;;;22.94;47.63;101602.78;4903575;28;123149;-77
2021/07/20 10:00:06;;;;;;;8.65;5.90;;;;;;;22.96;48.45;101596.69;4892476;28;121712;-77
2021/07/20 10:02:53;;;;;;;10.02;6.35;;;;;;;23.03;48.58;101595.38;4904146;28;120580;-76
2021/07/20 10:05:41;;;;;;;9.77;6.25;;;;;;;23.07;46.77;101596.63;4904858;28;121569;-76
2021/07/20 10:08:35;;;;;;;9.15;5.80;;;;;;;23.08;48.05;101609.34;4886683;28;120857;-76
2021/07/20 10:11:33;;;;;;;10.40;5.80;;;;;;;23.01;47.79;101603.53;4903515;28;121242;-76
2021/07/20 10:14:22;;;;;;;10.10;7.13;;;;;;;22.96;48.04;101599.50;4906213;28;121559;-77
2021/07/20 10:17:09;;;;;;;9.07;5.82;;;;;;;22.89;47.01;101597.97;4903504;28;121098;-78
2021/07/20 10:19:59;;;;;;;9.25;6.28;;;;;;;22.90;48.61;101599.50;4903904;28;120733;-76
2021/07/20 10:22:38;;;;;;;10.00;5.97;;;;;;;22.99;47.46;101597.69;4889707;28;120985;-76
2021/07/20 10:25:09;;;;;;;9.88;6.25;;;;;;;23.15;48.59;101594.03;4910599;28;121373;-77
2021/07/20 10:28:01;;;;;;;8.88;6.05;;;;;;;23.27;47.75;101593.47;4904160;28;121779;-77
2021/07/20 10:30:31;;;;;;;8.73;5.90;;;;;;;23.36;47.84;101592.41;4902251;28;121133;-76
2021/07/20 10:33:10;;;;;;;9.68;6.50;;;;;;;23.43;47.58;101602.31;4903202;28;121530;-76
2021/07/20 10:36:01;;;;;;;8.45;6.30;;;;;;;23.51;48.17;101595.63;4909293;28;122027;-78
2021/07/20 10:38:34;;;;;;;10.02;6.40;;;;;;;23.60;48.47;101586.16;4906273;28;121347;-78
2021/07/20 10:41:03;;;;;;;12.15;6.97;;;;;;;23.68;47.05;101589.19;4872998;28;124452;-78
2021/07/20 10:43:37;;;;;;;12.23;6.32;;;;;;;23.69;47.51;101587.91;4901377;28;122005;-76
2021/07/20 10:46:06;;;;;;;10.35;6.35;;;;;;;23.65;48.14;101593.00;4901609;28;121793;-78
2021/07/20 10:48:37;;;;;;;9.65;6.85;;;;;;;23.62;47.47;101594.03;4916586;28;121460;-77
2021/07/20 10:51:08;;;;;;;9.68;7.07;;;;;;;23.58;48.10;101589.50;4915925;28;122719;-76
2021/07/20 10:53:42;;;;;;;12.30;6.82;;;;;;;23.58;48.39;101595.09;4902732;28;122118;-76
2021/07/20 10:56:40;;;;;;;11.90;6.43;;;;;;;23.53;48.51;101593.06;4901966;28;121538;-77
2021/07/20 10:59:18;;;;;;;10.25;6.57;;;;;;;23.46;48.38;101581.66;4901261;28;122739;-76
2021/07/20 11:02:02;;;;;;;11.60;6.88;;;;;;;23.41;48.11;101579.63;4905373;28;122356;-77
2021/07/20 11:04:51;;;;;;;10.90;6.60;;;;;;;23.39;48.97;101577.38;4901790;28;125455;-76
2021/07/20 11:07:34;;;;;;;9.25;6.38;;;;;;;23.39;48.93;101576.59;4903834;28;121534;-77
2021/07/20 11:10:10;;;;;;;9.68;5.88;;;;;;;23.42;46.92;101573.56;4885460;28;121294;-77
2021/07/20 11:12:39;;;;;;;9.65;5.88;;;;;;;23.45;47.73;101574.56;4908155;28;121782;-77
2021/07/20 11:15:07;;;;;;;9.40;5.05;;;;;;;23.49;47.35;101575.03;4902221;28;121726;-76
2021/07/20 11:17:37;;;;;;;7.45;5.65;;;;;;;23.62;47.77;101578.00;4902488;28;121635;-76
2021/07/20 11:20:12;;;;;;;9.25;5.53;;;;;;;23.72;46.87;101570.81;4899371;28;127245;-76
2021/07/20 11:22:39;;;;;;;10.32;5.30;;;;;;;23.82;46.79;101574.78;4902683;28;122324;-76
2021/07/20 11:25:07;;;;;;;7.28;5.20;;;;;;;23.86;45.60;101568.91;4883036;28;123973;-76
2021/07/20 11:27:39;;;;;;;8.32;5.75;;;;;;;23.95;46.21;101571.38;4904009;28;123304;-76
2021/07/20 11:30:16;;;;;;;10.13;5.72;;;;;;;23.96;47.00;101575.69;4886044;28;122719;-76
2021/07/20 11:32:51;;;;;;;7.40;5.38;;;;;;;23.93;47.05;101576.00;4902793;28;121653;-76
2021/07/20 11:35:18;;;;;;;8.57;5.25;;;;;;;23.86;46.48;101572.47;4885780;28;122693;-77
2021/07/20 11:37:52;;;;;;;7.53;5.22;;;;;;;23.80;46.66;101571.00;4899917;28;121371;-76
2021/07/20 11:40:30;;;;;;;7.00;5.20;;;;;;;23.71;46.62;101579.72;4917137;28;124685;-76
2021/07/20 11:43:14;;;;;;;;;;;;;;;23.60;46.95;101583.38;4918452;28;122398;-76
2021/07/20 11:45:58;;;;;;;9.57;4.80;;;;;;;23.53;47.67;101581.09;4906678;28;122116;-76